Time;durP1;ratioP1;P1;durP2;ratioP2;P2;SDS_P1;SDS_P2;PMS_P1;PMS_P2;Temp;Humidity;BMP_temperature;BMP_pressure;BME280_temperature;BME280_humidity;BME280_pressure;Samples;Min_cycle;Max_cycle;Signal;HPM_P1;HPM_P2
2023/03/23 00:03:21;;;;;;;22.27;17.25;;;;;;;10.26;100.00;100076.31;10404757;28;20086;-73
2023/03/23 00:08:21;;;;;;;25.20;18.17;;;;;;;10.23;100.00;100065.84;10394125;28;20477;-75
2023/03/23 00:13:25;;;;;;;23.10;17.95;;;;;;;10.24;100.00;100061.16;10377114;28;20076;-78
2023/03/23 00:18:25;;;;;;;24.40;17.67;;;;;;;10.26;100.00;100057.03;10424778;28;20544;-78
2023/03/23 00:23:26;;;;;;;22.15;16.83;;;;;;;10.28;100.00;100049.34;10411648;28;20472;-78
2023/03/23 00:28:27;;;;;;;24.77;18.23;;;;;;;10.32;100.00;100057.09;10409612;28;20045;-77
2023/03/23 00:33:29;;;;;;;17.83;15.38;;;;;;;10.20;100.00;100033.38;10410211;28;20034;-77
2023/03/23 00:38:29;;;;;;;18.48;15.35;;;;;;;10.29;100.00;100053.78;10416497;28;20033;-77
2023/03/23 00:43:30;;;;;;;19.60;15.20;;;;;;;10.35;100.00;100042.78;10452095;28;20029;-76
2023/03/23 00:48:32;;;;;;;22.50;14.98;;;;;;;10.30;100.00;100033.41;10433883;28;20033;-77
2023/03/23 00:53:33;;;;;;;21.27;15.23;;;;;;;10.38;100.00;100042.25;10450142;28;20044;-77
2023/03/23 00:58:33;;;;;;;17.42;13.32;;;;;;;10.39;100.00;100046.63;10451829;28;20033;-76
2023/03/23 01:03:34;;;;;;;22.33;13.82;;;;;;;10.40;100.00;100042.81;10424631;28;20068;-76
2023/03/23 01:08:36;;;;;;;17.67;13.45;;;;;;;10.38;100.00;100045.00;10383712;28;20045;-77
2023/03/23 01:13:36;;;;;;;18.92;12.95;;;;;;;10.41;100.00;100038.94;10369408;28;20076;-78
2023/03/23 01:18:38;;;;;;;17.45;12.05;;;;;;;10.36;100.00;100019.69;10369804;28;20080;-77
2023/03/23 01:23:38;;;;;;;17.40;12.85;;;;;;;10.40;100.00;99996.84;10366893;28;20129;-76
2023/03/23 01:28:39;;;;;;;12.55;10.95;;;;;;;10.37;100.00;99983.63;10367468;28;20394;-73
2023/03/23 01:33:39;;;;;;;14.70;9.80;;;;;;;10.41;100.00;100011.41;10375174;28;20045;-79
2023/03/23 01:38:42;;;;;;;11.65;9.82;;;;;;;10.37;100.00;99999.31;10406339;28;20069;-78
2023/03/23 01:43:55;;;;;;;17.63;8.93;;;;;;;10.44;100.00;99988.88;10358412;28;20469;-79
2023/03/23 01:48:55;;;;;;;10.25;8.18;;;;;;;10.34;100.00;99988.88;10405628;28;20093;-80
2023/03/23 01:54:00;;;;;;;12.20;7.85;;;;;;;10.36;100.00;99982.00;10390165;28;20151;-79
2023/03/23 01:59:01;;;;;;;12.57;7.60;;;;;;;10.28;100.00;99969.56;10407589;28;20033;-78
2023/03/23 02:04:02;;;;;;;13.40;7.97;;;;;;;10.22;100.00;99969.84;10405745;28;20065;-79
2023/03/23 02:09:03;;;;;;;9.20;6.97;;;;;;;10.25;100.00;99963.78;10375307;28;20042;-79
2023/03/23 02:14:04;;;;;;;9.57;6.88;;;;;;;10.31;100.00;99962.72;10408123;28;20034;-78
2023/03/23 02:19:17;;;;;;;8.88;5.90;;;;;;;10.28;100.00;99942.06;10390007;28;20485;-78
2023/03/23 02:24:37;;;;;;;6.95;4.93;;;;;;;10.22;100.00;99925.84;10447844;28;20075;-79
2023/03/23 02:30:01;;;;;;;6.07;4.90;;;;;;;10.24;100.00;99916.19;10456465;28;20041;-79
2023/03/23 02:35:08;;;;;;;9.88;5.53;;;;;;;10.24;100.00;99909.88;10360630;28;20048;-78
2023/03/23 02:40:12;;;;;;;12.05;4.95;;;;;;;9.95;100.00;99865.59;10356925;28;20041;-80
2023/03/23 02:45:12;;;;;;;7.88;4.65;;;;;;;10.13;100.00;99906.31;10398015;28;20093;-80
2023/03/23 02:50:14;;;;;;;11.68;5.55;;;;;;;10.18;100.00;99917.28;10397274;28;20497;-80
2023/03/23 02:55:15;;;;;;;6.13;4.95;;;;;;;10.16;100.00;99904.94;10397319;28;20038;-80
2023/03/23 03:00:16;;;;;;;8.82;5.10;;;;;;;10.14;100.00;99896.13;10412921;28;20037;-81
2023/03/23 03:05:37;;;;;;;10.57;4.72;;;;;;;10.16;100.00;99894.75;10395607;28;20069;-83
2023/03/23 03:10:42;;;;;;;8.15;5.07;;;;;;;9.34;100.00;99779.25;10394796;28;20507;-80
2023/03/23 03:15:48;;;;;;;8.55;4.15;;;;;;;10.21;100.00;99885.66;10411215;28;20048;-81
2023/03/23 03:20:50;;;;;;;6.47;4.20;;;;;;;10.20;100.00;99889.53;10355168;28;20098;-82
2023/03/23 03:25:51;;;;;;;6.90;4.22;;;;;;;10.03;100.00;99868.63;10395916;28;20288;-82
2023/03/23 03:30:54;;;;;;;11.38;3.60;;;;;;;10.15;100.00;99876.59;10393548;28;20034;-81
2023/03/23 03:35:54;;;;;;;9.55;3.97;;;;;;;10.18;100.00;99886.22;10376704;28;20501;-82
2023/03/23 03:40:55;;;;;;;9.35;4.28;;;;;;;10.13;100.00;99861.47;10411150;28;20037;-82
2023/03/23 03:45:56;;;;;;;8.63;4.38;;;;;;;10.17;100.00;99860.66;10378600;28;20944;-82
2023/03/23 03:50:56;;;;;;;8.90;5.00;;;;;;;10.19;100.00;99849.34;10378233;28;20030;-83
2023/03/23 03:55:59;;;;;;;8.85;5.03;;;;;;;10.13;100.00;99856.81;10412790;28;20033;-82
2023/03/23 04:01:00;;;;;;;9.48;4.47;;;;;;;10.23;100.00;99862.28;10411036;28;20477;-82
2023/03/23 04:06:00;;;;;;;5.00;4.25;;;;;;;10.30;100.00;99848.28;10371031;28;20044;-81
2023/03/23 04:11:01;;;;;;;7.45;4.43;;;;;;;10.28;100.00;99858.72;10353003;28;20041;-83
2023/03/23 04:16:02;;;;;;;7.50;5.05;;;;;;;10.23;100.00;99844.94;10336783;28;20389;-83
2023/03/23 04:21:02;;;;;;;10.90;5.28;;;;;;;10.16;100.00;99825.16;10336840;28;20053;-81
2023/03/23 04:26:03;;;;;;;9.38;5.40;;;;;;;10.13;100.00;99818.28;10368329;28;20046;-81
2023/03/23 04:31:04;;;;;;;5.95;4.30;;;;;;;10.28;100.00;99832.00;10336601;28;20045;-80
2023/03/23 04:36:06;;;;;;;9.05;5.20;;;;;;;10.28;100.00;99810.00;10353375;28;20053;-84
2023/03/23 04:41:07;;;;;;;6.43;5.22;;;;;;;10.36;100.00;99791.34;10374698;28;20465;-83
2023/03/23 04:46:08;;;;;;;7.90;5.40;;;;;;;10.44;100.00;99799.00;10368345;28;20045;-84
2023/03/23 04:51:09;;;;;;;7.38;4.90;;;;;;;10.43;100.00;99817.41;10370001;28;20689;-83
2023/03/23 04:56:09;;;;;;;8.95;6.00;;;;;;;10.46;100.00;99818.81;10335170;28;20038;-81
2023/03/23 05:01:09;;;;;;;10.13;5.55;;;;;;;10.52;100.00;99830.59;10355037;28;20405;-83
2023/03/23 05:06:10;;;;;;;18.65;8.48;;;;;;;10.40;100.00;99910.72;10408658;28;20413;-75
2023/03/23 05:11:11;;;;;;;6.63;3.80;;;;;;;9.75;100.00;99893.91;10392020;28;20044;-74
2023/03/23 05:16:12;;;;;;;6.57;2.35;;;;;;;9.28;100.00;99907.53;10408669;28;20042;-76
2023/03/23 05:21:13;;;;;;;7.20;2.90;;;;;;;9.15;100.00;99887.97;10374647;28;20045;-78
2023/03/23 05:26:13;;;;;;;9.38;4.43;;;;;;;9.26;100.00;99904.22;10406568;28;20077;-77
2023/03/23 05:31:14;;;;;;;4.97;2.70;;;;;;;9.36;100.00;99903.41;10392315;28;20130;-82
2023/03/23 05:36:15;;;;;;;8.82;3.55;;;;;;;9.32;100.00;99910.53;10416684;28;20036;-83
2023/03/23 05:41:16;;;;;;;6.53;2.30;;;;;;;9.27;100.00;99889.38;10388400;28;20061;-82
2023/03/23 05:46:17;;;;;;;6.43;2.70;;;;;;;9.33;100.00;99914.16;10390760;28;20068;-83
2023/03/23 05:51:18;;;;;;;7.13;3.45;;;;;;;9.26;100.00;99897.88;10406502;28;20045;-83
2023/03/23 05:56:19;;;;;;;12.15;3.70;;;;;;;9.41;100.00;99908.94;10409010;28;20041;-83
2023/03/23 06:01:19;;;;;;;10.80;3.35;;;;;;;9.48;100.00;99917.75;10407413;28;20382;-83
2023/03/23 06:06:20;;;;;;;9.07;3.55;;;;;;;9.46;100.00;99908.94;10404710;28;20088;-85
2023/03/23 06:11:21;;;;;;;8.00;3.60;;;;;;;9.57;100.00;99925.47;10373821;28;20120;-85
2023/03/23 06:16:22;;;;;;;14.23;3.97;;;;;;;9.56;100.00;99929.31;10388223;28;20053;-83
2023/03/23 06:21:22;;;;;;;11.27;3.80;;;;;;;9.42;100.00;99927.06;10406243;28;20130;-84
2023/03/23 06:26:25;;;;;;;13.20;3.47;;;;;;;9.53;100.00;99944.44;10373277;28;20093;-68
2023/03/23 06:31:27;;;;;;;18.27;3.97;;;;;;;9.55;100.00;99947.72;10373037;28;20057;-83
2023/03/23 06:36:28;;;;;;;23.60;4.20;;;;;;;9.61;100.00;99929.31;10372807;28;20037;-86
2023/03/23 06:41:28;;;;;;;16.58;3.70;;;;;;;9.78;100.00;99948.34;10406869;28;20426;-82
2023/03/23 06:46:29;;;;;;;16.75;3.80;;;;;;;9.86;100.00;99945.03;10388196;28;20484;-86
2023/03/23 06:51:29;;;;;;;16.15;4.28;;;;;;;9.85;100.00;99960.72;10365360;28;20053;-85
2023/03/23 06:56:30;;;;;;;12.50;4.63;;;;;;;9.90;100.00;99974.47;10333981;28;20034;-85
2023/03/23 07:01:31;;;;;;;15.55;5.28;;;;;;;9.85;100.00;99968.97;10334242;28;20038;-86
2023/03/23 07:06:32;;;;;;;19.77;4.90;;;;;;;9.95;100.00;99970.91;10347988;28;20096;-85
2023/03/23 07:11:32;;;;;;;18.13;3.72;;;;;;;10.05;100.00;99981.94;10352324;28;20048;-83
2023/03/23 07:16:33;;;;;;;16.38;3.20;;;;;;;10.08;100.00;99981.38;10340383;28;20037;-81
2023/03/23 07:21:33;;;;;;;16.25;3.45;;;;;;;10.13;100.00;99979.72;10339429;28;20034;-83
2023/03/23 07:26:34;;;;;;;22.30;4.82;;;;;;;10.21;100.00;99991.03;10352213;28;20038;-81
2023/03/23 07:31:34;;;;;;;15.60;3.00;;;;;;;10.14;100.00;99971.19;10393962;28;20051;-80
2023/03/23 07:36:37;;;;;;;16.95;4.28;;;;;;;10.29;100.00;99995.13;10382244;28;20065;-83
2023/03/23 07:41:38;;;;;;;23.85;4.72;;;;;;;10.23;100.00;99998.97;10391884;28;20037;-79
2023/03/23 07:46:38;;;;;;;20.05;4.15;;;;;;;10.29;100.00;99997.88;10370529;28;20109;-82
2023/03/23 07:51:39;;;;;;;25.33;4.38;;;;;;;10.43;100.00;100007.28;10354217;28;20993;-81
2023/03/23 07:56:39;;;;;;;17.23;3.95;;;;;;;10.45;100.00;100004.28;10351353;28;20034;-82
2023/03/23 08:01:40;;;;;;;22.02;4.50;;;;;;;10.60;100.00;99987.75;10348280;28;20042;-82
2023/03/23 08:06:41;;;;;;;16.45;3.58;;;;;;;10.76;100.00;100013.34;10359435;28;20042;-82
2023/03/23 08:11:42;;;;;;;21.52;3.90;;;;;;;10.47;100.00;99955.28;10349260;28;20551;-79
2023/03/23 08:16:43;;;;;;;22.25;4.63;;;;;;;10.90;100.00;100013.59;10369102;28;20058;-83
2023/03/23 08:21:43;;;;;;;21.83;5.20;;;;;;;10.99;100.00;100022.94;10335933;28;20038;-82
2023/03/23 08:26:44;;;;;;;17.98;4.28;;;;;;;11.03;100.00;100024.03;10369238;28;20049;-74
2023/03/23 08:31:44;;;;;;;18.65;3.85;;;;;;;11.07;100.00;100030.66;10341261;28;20050;-80
2023/03/23 08:36:46;;;;;;;17.27;3.25;;;;;;;11.12;100.00;100021.56;10405390;28;20048;-80
2023/03/23 08:41:46;;;;;;;16.77;3.53;;;;;;;11.13;100.00;100025.13;10403236;28;20084;-80
2023/03/23 08:46:47;;;;;;;22.60;4.28;;;;;;;11.40;100.00;100035.81;10370423;28;20092;-81
2023/03/23 08:51:48;;;;;;;24.27;5.28;;;;;;;11.48;100.00;100058.09;10370950;28;20059;-82
2023/03/23 08:56:48;;;;;;;16.23;3.75;;;;;;;11.58;100.00;100029.69;10387807;28;20056;-85
2023/03/23 09:01:49;;;;;;;20.60;3.85;;;;;;;11.22;100.00;100042.75;10404151;28;20041;-83
2023/03/23 09:06:50;;;;;;;25.48;4.18;;;;;;;11.40;100.00;100047.66;10406550;28;20045;-84
2023/03/23 09:11:50;;;;;;;21.13;4.55;;;;;;;11.45;100.00;100042.13;10406319;28;20044;-85
2023/03/23 09:16:51;;;;;;;20.90;3.78;;;;;;;11.40;100.00;100039.38;10406980;28;20520;-86
2023/03/23 09:21:51;;;;;;;26.73;5.05;;;;;;;11.29;100.00;100066.16;10375174;28;20044;-84
2023/03/23 09:26:52;;;;;;;21.48;4.88;;;;;;;11.42;100.00;100053.72;10410181;28;20105;-83
2023/03/23 09:31:55;;;;;;;23.02;4.15;;;;;;;11.69;100.00;100055.28;10407548;28;20057;-86
2023/03/23 09:36:56;;;;;;;21.52;4.35;;;;;;;11.59;100.00;100077.38;10406037;28;20068;-84
2023/03/23 09:42:11;;;;;;;24.35;5.30;;;;;;;11.55;100.00;100084.53;10405666;28;20029;-80
2023/03/23 09:47:42;;;;;;;26.70;5.03;;;;;;;11.58;100.00;100079.31;10406574;28;20045;-82
2023/03/23 09:52:58;;;;;;;16.98;3.97;;;;;;;11.36;100.00;100079.63;10409775;28;20052;-84
2023/03/23 09:58:23;;;;;;;24.77;4.63;;;;;;;11.27;100.00;100078.56;10374790;28;20037;-82
2023/03/23 10:03:31;;;;;;;23.13;4.65;;;;;;;11.39;100.00;100076.34;10407589;28;20052;-84
2023/03/23 10:08:32;;;;;;;18.33;3.05;;;;;;;11.29;100.00;100076.34;10373874;28;20068;-80
2023/03/23 10:14:01;;;;;;;15.85;3.88;;;;;;;11.97;100.00;100064.84;10405086;28;20041;-84
2023/03/23 10:19:07;;;;;;;26.50;4.15;;;;;;;12.90;100.00;100054.81;10405607;28;20405;-83
2023/03/23 10:24:12;;;;;;;20.08;5.00;;;;;;;13.53;100.00;100066.91;10406139;28;20576;-83
2023/03/23 10:29:28;;;;;;;17.92;3.70;;;;;;;13.42;100.00;100060.69;10390833;28;20033;-83
2023/03/23 10:34:40;;;;;;;19.83;4.70;;;;;;;13.05;100.00;100067.66;10405751;28;20041;-84
2023/03/23 10:39:50;;;;;;;15.05;4.70;;;;;;;12.64;100.00;100070.75;10366269;28;20137;-83
2023/03/23 10:44:51;;;;;;;19.90;4.28;;;;;;;12.49;100.00;100087.44;10406441;28;20140;-83
2023/03/23 10:49:57;;;;;;;16.00;3.05;;;;;;;12.85;100.00;100089.94;10415468;28;20029;-81
2023/03/23 10:55:05;;;;;;;17.97;3.87;;;;;;;13.16;100.00;100075.84;10414575;28;20033;-83
2023/03/23 11:00:16;;;;;;;16.88;4.13;;;;;;;13.09;100.00;100077.00;10415447;28;20040;-83
2023/03/23 11:05:20;;;;;;;17.35;3.75;;;;;;;13.42;100.00;100084.75;10408012;28;20536;-85
2023/03/23 11:10:25;;;;;;;14.63;2.75;;;;;;;13.25;100.00;100061.13;10389983;28;20073;-87
2023/03/23 11:15:39;;;;;;;17.92;4.10;;;;;;;13.42;100.00;100068.97;10403727;28;20048;-87
2023/03/23 11:20:41;;;;;;;16.30;3.53;;;;;;;13.69;100.00;100073.13;10413239;28;20049;-88
2023/03/23 11:26:10;;;;;;;15.45;3.72;;;;;;;13.70;100.00;100071.97;10412689;28;20080;-90
2023/03/23 11:31:11;;;;;;;9.93;1.88;;;;;;;13.47;100.00;100046.78;10415189;28;20386;-84
2023/03/23 11:36:12;;;;;;;21.08;3.78;;;;;;;13.40;100.00;100075.94;10413726;28;20034;-88
2023/03/23 11:41:17;;;;;;;7.18;1.75;;;;;;;13.62;100.00;100025.59;10380424;28;20117;-84
2023/03/23 11:46:50;;;;;;;15.52;2.10;;;;;;;14.40;100.00;100068.56;10396188;28;20072;-89
2023/03/23 11:51:54;;;;;;;10.38;2.35;;;;;;;14.83;100.00;100082.31;10392691;28;20041;-83
2023/03/23 11:56:55;;;;;;;10.18;2.38;;;;;;;14.24;100.00;100081.81;10394975;28;20033;-83
2023/03/23 12:02:04;;;;;;;8.38;1.90;;;;;;;14.71;100.00;100079.19;10388684;28;20060;-81
2023/03/23 12:07:34;;;;;;;13.15;2.58;;;;;;;14.60;100.00;100097.13;10393374;28;20071;-80
2023/03/23 12:12:49;;;;;;;8.45;2.40;;;;;;;14.45;100.00;100095.34;10359889;28;20049;-83
2023/03/23 12:18:28;;;;;;;12.55;1.95;;;;;;;14.34;100.00;100080.81;10400030;28;20041;-85
2023/03/23 12:23:42;;;;;;;8.95;1.80;;;;;;;14.90;100.00;100087.47;10410633;28;20472;-84
2023/03/23 12:29:05;;;;;;;12.02;2.05;;;;;;;16.33;100.00;100084.72;10410958;28;20148;-82
2023/03/23 12:34:15;;;;;;;11.07;2.15;;;;;;;16.89;100.00;100079.00;10353948;28;20142;-81
2023/03/23 12:39:34;;;;;;;8.80;1.80;;;;;;;17.08;100.00;100074.06;10409208;28;20551;-80
2023/03/23 12:45:10;;;;;;;6.22;1.73;;;;;;;17.21;100.00;100071.53;10410103;28;20037;-83
2023/03/23 12:50:19;;;;;;;8.50;1.80;;;;;;;17.11;100.00;100065.06;10387254;28;20433;-82
2023/03/23 12:55:32;;;;;;;10.40;1.85;;;;;;;17.17;100.00;100065.75;10394103;28;20037;-82
2023/03/23 13:01:05;;;;;;;6.97;1.70;;;;;;;17.25;98.71;100067.78;10393788;28;20121;-78
2023/03/23 13:06:20;;;;;;;9.63;2.00;;;;;;;16.01;99.28;100084.88;10392554;28;20064;-81
2023/03/23 13:11:33;;;;;;;9.02;1.80;;;;;;;14.90;100.00;100098.56;10391374;28;20044;-79
2023/03/23 13:16:45;;;;;;;12.85;1.80;;;;;;;14.89;100.00;100086.66;10353006;28;20046;-82
2023/03/23 13:22:00;;;;;;;12.57;2.38;;;;;;;15.00;100.00;100080.94;10376595;28;20061;-80
2023/03/23 13:27:01;;;;;;;11.50;2.53;;;;;;;14.36;100.00;100086.06;10392234;28;20049;-78
2023/03/23 13:32:10;;;;;;;8.40;2.30;;;;;;;14.22;100.00;100095.13;10407463;28;20494;-79
2023/03/23 13:37:26;;;;;;;9.55;2.03;;;;;;;14.27;100.00;100081.19;10388400;28;20034;-86
2023/03/23 13:42:30;;;;;;;8.77;2.17;;;;;;;14.31;100.00;100093.31;10392473;28;20464;-81
2023/03/23 13:47:36;;;;;;;14.77;2.55;;;;;;;14.20;100.00;100075.22;10408780;28;20044;-85
2023/03/23 13:52:45;;;;;;;;;;;;;;;14.44;100.00;100091.75;10408077;28;20038;-87
2023/03/23 13:57:53;;;;;;;12.23;2.45;;;;;;;14.26;100.00;100095.34;10391604;28;19926;-87
2023/03/23 14:03:09;;;;;;;9.60;1.83;;;;;;;14.15;100.00;100104.91;10406336;28;20091;-78
2023/03/23 14:08:10;;;;;;;13.27;1.63;;;;;;;14.93;100.00;100100.75;10407075;28;20063;-78
2023/03/23 14:13:20;;;;;;;7.38;2.38;;;;;;;16.57;100.00;100066.94;10376681;28;20878;-81
2023/03/23 14:18:21;;;;;;;9.82;2.20;;;;;;;16.10;100.00;100069.13;10365117;28;20423;-78
2023/03/23 14:23:22;;;;;;;9.70;1.85;;;;;;;15.37;100.00;100098.59;10357561;28;20042;-84
2023/03/23 14:28:23;;;;;;;7.40;1.90;;;;;;;14.80;100.00;100090.41;10357378;28;20049;-82
2023/03/23 14:33:24;;;;;;;11.02;2.55;;;;;;;15.42;100.00;100104.88;10373100;28;20030;-78
2023/03/23 14:38:28;;;;;;;11.82;2.47;;;;;;;16.22;100.00;100099.16;10346332;28;20050;-80
2023/03/23 14:43:29;;;;;;;9.63;2.65;;;;;;;16.98;100.00;100088.22;10372581;28;20053;-80
2023/03/23 14:48:29;;;;;;;14.00;3.30;;;;;;;15.91;100.00;100083.94;10375525;28;20044;-86
2023/03/23 14:53:30;;;;;;;11.10;2.25;;;;;;;15.93;100.00;100098.34;10356803;28;20045;-83
2023/03/23 14:58:31;;;;;;;9.93;2.55;;;;;;;14.96;100.00;100058.53;10375198;28;20042;-82
2023/03/23 15:03:35;;;;;;;18.60;3.83;;;;;;;14.41;100.00;100086.00;10371635;28;20358;-84
2023/03/23 15:08:35;;;;;;;12.32;2.95;;;;;;;14.87;100.00;100100.00;10338846;28;20053;-85
2023/03/23 15:13:36;;;;;;;17.30;3.08;;;;;;;15.02;100.00;100100.88;10356014;28;20045;-83
2023/03/23 15:18:38;;;;;;;14.77;2.22;;;;;;;15.82;100.00;100096.09;10342302;28;20049;-84
2023/03/23 15:23:42;;;;;;;10.20;2.55;;;;;;;16.38;100.00;100053.22;10373321;28;20042;-79
2023/03/23 15:28:43;;;;;;;9.63;2.65;;;;;;;16.14;100.00;100071.00;10373286;28;20041;-80
2023/03/23 15:33:43;;;;;;;13.52;2.50;;;;;;;16.39;100.00;100084.59;10336230;28;20045;-80
2023/03/23 15:38:45;;;;;;;10.85;1.75;;;;;;;16.11;100.00;100065.22;10371035;28;20500;-88
2023/03/23 15:43:51;;;;;;;13.77;2.97;;;;;;;15.93;100.00;100069.78;10355955;28;20030;-81
2023/03/23 15:49:08;;;;;;;9.93;1.80;;;;;;;15.74;100.00;100033.81;10355051;28;20030;-81
2023/03/23 15:54:15;;;;;;;7.22;1.85;;;;;;;16.14;100.00;100043.22;10392659;28;20038;-80
2023/03/23 15:59:16;;;;;;;11.75;2.67;;;;;;;16.96;100.00;100034.06;10413582;28;20049;-81
2023/03/23 16:04:17;;;;;;;11.10;2.67;;;;;;;16.73;99.59;100043.22;10410534;28;20065;-83
2023/03/23 16:09:19;;;;;;;11.35;2.55;;;;;;;16.68;98.94;100035.00;10413387;28;20068;-83
2023/03/23 16:14:20;;;;;;;9.60;2.20;;;;;;;16.50;98.45;100047.13;10394690;28;20041;-81
2023/03/23 16:19:23;;;;;;;8.18;2.03;;;;;;;15.43;100.00;100067.69;10393799;28;20042;-85
2023/03/23 16:24:23;;;;;;;7.18;2.17;;;;;;;14.64;100.00;100068.50;10409887;28;20046;-85
2023/03/23 16:29:24;;;;;;;13.00;2.85;;;;;;;14.15;100.00;100078.06;10367674;28;20053;-80
2023/03/23 16:34:27;;;;;;;8.88;1.90;;;;;;;13.58;100.00;100063.25;10345294;28;20041;-82
2023/03/23 16:39:28;;;;;;;12.73;2.28;;;;;;;13.58;100.00;100090.91;10409979;28;20029;-80
2023/03/23 16:44:28;;;;;;;9.30;2.58;;;;;;;13.61;100.00;100079.28;10391496;28;20045;-82
2023/03/23 16:49:29;;;;;;;11.93;2.38;;;;;;;13.48;100.00;100084.41;10408349;28;20033;-80
2023/03/23 16:54:29;;;;;;;13.45;2.13;;;;;;;13.27;100.00;100092.06;10391817;28;20111;-81
2023/03/23 16:59:30;;;;;;;10.48;2.05;;;;;;;13.01;100.00;100083.16;10407931;28;20513;-76
2023/03/23 17:04:31;;;;;;;10.88;1.95;;;;;;;12.98;100.00;100105.00;10390054;28;20055;-81
2023/03/23 17:09:32;;;;;;;10.73;2.08;;;;;;;12.86;100.00;100124.75;10375070;28;20056;-81
2023/03/23 17:14:32;;;;;;;6.85;1.83;;;;;;;12.79;100.00;100135.28;10376385;28;20029;-81
2023/03/23 17:19:33;;;;;;;12.40;2.22;;;;;;;12.60;100.00;100127.69;10391045;28;20034;-81
2023/03/23 17:24:33;;;;;;;19.90;2.97;;;;;;;12.51;100.00;100137.69;10406545;28;20098;-80
2023/03/23 17:29:34;;;;;;;12.95;2.60;;;;;;;12.36;100.00;100119.28;10367816;28;20065;-79
2023/03/23 17:34:34;;;;;;;14.13;3.15;;;;;;;12.17;100.00;100102.53;10365547;28;20034;-79
2023/03/23 17:39:35;;;;;;;12.10;2.55;;;;;;;12.03;100.00;100145.63;10400082;28;20044;-78
2023/03/23 17:44:35;;;;;;;12.68;2.50;;;;;;;11.95;100.00;100135.19;10386681;28;20045;-80
2023/03/23 17:49:36;;;;;;;12.55;3.08;;;;;;;11.86;100.00;100140.41;10386964;28;20053;-79
2023/03/23 17:54:36;;;;;;;15.45;3.17;;;;;;;11.76;100.00;100141.31;10372456;28;20053;-81
2023/03/23 17:59:37;;;;;;;13.07;3.03;;;;;;;11.66;100.00;100150.41;10424143;28;20033;-79
2023/03/23 18:04:37;;;;;;;9.63;2.47;;;;;;;11.56;100.00;100164.22;10429905;28;20061;-80
2023/03/23 18:09:38;;;;;;;6.13;1.90;;;;;;;11.34;100.00;100150.72;10430048;28;20045;-79
2023/03/23 18:14:38;;;;;;;8.13;1.85;;;;;;;11.18;100.00;100152.66;10430320;28;20271;-77
2023/03/23 18:19:39;;;;;;;9.10;1.65;;;;;;;10.94;100.00;100144.16;10415012;28;20048;-78
2023/03/23 18:24:39;;;;;;;5.90;2.00;;;;;;;10.74;100.00;100147.69;10410985;28;20143;-79
2023/03/23 18:29:40;;;;;;;4.65;1.25;;;;;;;10.73;100.00;100142.44;10446848;28;20053;-75
2023/03/23 18:34:41;;;;;;;7.22;1.73;;;;;;;10.74;100.00;100141.38;10412968;28;20033;-78
2023/03/23 18:39:42;;;;;;;6.00;1.77;;;;;;;10.69;100.00;100133.94;10411870;28;20106;-79
2023/03/23 18:44:42;;;;;;;3.22;1.90;;;;;;;10.72;100.00;100129.81;10428714;28;20095;-79
2023/03/23 18:49:45;;;;;;;4.53;1.95;;;;;;;10.58;100.00;100111.03;10445048;28;20029;-78
2023/03/23 18:54:45;;;;;;;9.40;1.83;;;;;;;10.47;100.00;100131.41;10413991;28;20089;-78
2023/03/23 18:59:46;;;;;;;7.50;2.20;;;;;;;10.37;100.00;100126.69;10429099;28;20128;-79
2023/03/23 19:04:47;;;;;;;9.00;3.65;;;;;;;10.33;100.00;100120.09;10429745;28;20045;-78
2023/03/23 19:09:48;;;;;;;11.02;2.78;;;;;;;10.28;100.00;100101.63;10420538;28;20029;-79
2023/03/23 19:14:50;;;;;;;10.05;3.08;;;;;;;10.27;100.00;100097.22;10436465;28;20041;-75
2023/03/23 19:19:50;;;;;;;10.18;2.63;;;;;;;10.39;100.00;100113.50;10435899;28;20108;-79
2023/03/23 19:24:51;;;;;;;9.65;3.15;;;;;;;10.45;100.00;100103.34;10420522;28;20049;-80
2023/03/23 19:29:51;;;;;;;9.40;3.88;;;;;;;9.92;100.00;100011.84;10449991;28;20068;-79
2023/03/23 19:34:53;;;;;;;16.08;4.30;;;;;;;10.34;100.00;100074.97;10402574;28;20402;-76
2023/03/23 19:39:53;;;;;;;8.77;3.80;;;;;;;10.53;100.00;100086.28;10419223;28;20033;-77
2023/03/23 19:44:54;;;;;;;7.13;3.35;;;;;;;10.61;100.00;100088.50;10434299;28;20071;-77
2023/03/23 19:49:55;;;;;;;7.90;3.10;;;;;;;10.55;100.00;100062.06;10427294;28;20045;-78
2023/03/23 19:54:55;;;;;;;10.63;3.40;;;;;;;10.61;100.00;100055.47;10381705;28;20097;-78
2023/03/23 19:59:56;;;;;;;12.25;4.55;;;;;;;10.87;100.00;100074.72;10355097;28;20037;-79
2023/03/23 20:04:57;;;;;;;6.75;3.20;;;;;;;10.97;100.00;100074.72;10353731;28;20112;-78
2023/03/23 20:09:57;;;;;;;10.15;3.53;;;;;;;10.96;100.00;100051.06;10396453;28;20077;-78
2023/03/23 20:14:58;;;;;;;12.85;3.72;;;;;;;10.97;100.00;100062.88;10369023;28;20042;-78
2023/03/23 20:19:58;;;;;;;8.65;3.17;;;;;;;10.87;100.00;100048.03;10385108;28;20037;-78
2023/03/23 20:24:59;;;;;;;8.57;3.72;;;;;;;10.90;100.00;100063.19;10392235;28;20045;-78
2023/03/23 20:30:00;;;;;;;15.75;3.88;;;;;;;10.84;100.00;100042.25;10398834;28;20065;-77
2023/03/23 20:35:05;;;;;;;9.27;4.25;;;;;;;10.74;100.00;100031.25;10368108;28;20053;-78
2023/03/23 20:40:08;;;;;;;9.57;3.63;;;;;;;10.68;100.00;100022.97;10333099;28;20064;-78
2023/03/23 20:45:09;;;;;;;7.22;3.60;;;;;;;10.73;100.00;100024.06;10338241;28;20038;-78
2023/03/23 20:50:11;;;;;;;7.47;3.60;;;;;;;10.68;100.00;100011.16;10351083;28;20045;-79
2023/03/23 20:55:11;;;;;;;6.93;3.40;;;;;;;10.76;100.00;100015.28;10328333;28;20117;-78
2023/03/23 21:00:15;;;;;;;12.85;3.60;;;;;;;10.75;100.00;100019.13;10333738;28;20042;-80
2023/03/23 21:05:15;;;;;;;14.20;4.32;;;;;;;10.74;100.00;100017.47;10350504;28;20044;-81
2023/03/23 21:10:16;;;;;;;9.73;4.50;;;;;;;10.79;100.00;100015.56;10367249;28;20045;-79
2023/03/23 21:15:16;;;;;;;10.05;4.65;;;;;;;10.87;100.00;100011.41;10366660;28;20069;-78
2023/03/23 21:20:17;;;;;;;16.70;5.65;;;;;;;10.86;100.00;99990.47;10349795;28;20057;-77
2023/03/23 21:25:20;;;;;;;16.30;5.32;;;;;;;10.90;100.00;99992.41;10366118;28;20046;-77
2023/03/23 21:30:21;;;;;;;13.57;5.05;;;;;;;10.79;100.00;99985.28;10327492;28;20034;-74
2023/03/23 21:35:21;;;;;;;11.55;6.00;;;;;;;10.80;100.00;99986.09;10345818;28;20038;-76
2023/03/23 21:40:22;;;;;;;16.40;6.68;;;;;;;10.60;100.00;99964.91;10361375;28;20053;-79
2023/03/23 21:45:24;;;;;;;18.65;7.30;;;;;;;10.62;100.00;99958.00;10371672;28;20517;-78
2023/03/23 21:50:24;;;;;;;17.20;8.00;;;;;;;10.50;100.00;99946.50;10405435;28;20034;-80
2023/03/23 21:55:28;;;;;;;17.80;7.70;;;;;;;10.52;100.00;99947.00;10356340;28;20041;-79
2023/03/23 22:00:29;;;;;;;18.92;8.02;;;;;;;10.48;100.00;99945.94;10396431;28;20048;-79
2023/03/23 22:05:30;;;;;;;15.93;7.82;;;;;;;10.44;100.00;99939.34;10365714;28;20057;-79
2023/03/23 22:10:31;;;;;;;18.48;8.35;;;;;;;10.37;100.00;99933.28;10365133;28;20571;-80
2023/03/23 22:15:31;;;;;;;18.48;8.88;;;;;;;10.37;100.00;99922.28;10364610;28;20053;-79
2023/03/23 22:20:32;;;;;;;18.85;8.40;;;;;;;10.40;100.00;99916.22;10316181;28;20576;-70
2023/03/23 22:25:35;;;;;;;21.13;9.43;;;;;;;10.37;100.00;99905.75;10332325;28;20536;-79
2023/03/23 22:30:35;;;;;;;20.60;9.57;;;;;;;10.37;100.00;99903.84;10382996;28;20491;-78
2023/03/23 22:35:35;;;;;;;18.67;10.52;;;;;;;10.36;100.00;99893.13;10405820;28;20041;-80
2023/03/23 22:40:36;;;;;;;18.40;9.30;;;;;;;10.32;100.00;99864.53;10411864;28;20037;-79
2023/03/23 22:45:37;;;;;;;21.27;8.85;;;;;;;10.29;100.00;99850.22;10420961;28;20052;-79
2023/03/23 22:50:37;;;;;;;21.65;9.70;;;;;;;10.44;100.00;99863.13;10437652;28;20037;-79
2023/03/23 22:55:42;;;;;;;15.00;6.72;;;;;;;10.48;100.00;99863.38;10453642;28;20068;-77